Time;durP1;ratioP1;P1;durP2;ratioP2;P2;SDS_P1;SDS_P2;PMS_P1;PMS_P2;Temp;Humidity;BMP_temperature;BMP_pressure;BME280_temperature;BME280_humidity;BME280_pressure;Samples;Min_cycle;Max_cycle;Signal;HPM_P1;HPM_P2
2023/07/05 00:01:42;;;;;;;10.05;4.35;;;24.20;99.90;;;;;;7397559;19;19918;-71
2023/07/05 00:04:09;;;;;;;8.73;5.03;;;24.10;99.90;;;;;;7397567;19;20243;-71
2023/07/05 00:06:35;;;;;;;8.38;4.53;;;24.10;99.90;;;;;;7398314;19;20602;-72
2023/07/05 00:09:01;;;;;;;8.50;4.63;;;24.10;99.90;;;;;;7398629;19;19931;-72
2023/07/05 00:11:27;;;;;;;7.32;5.22;;;24.10;99.90;;;;;;7397265;19;19930;-72
2023/07/05 00:13:53;;;;;;;7.97;5.07;;;24.10;99.90;;;;;;7394509;19;20252;-72
2023/07/05 00:16:21;;;;;;;10.98;6.28;;;24.10;99.90;;;;;;7397523;19;20256;-70
2023/07/05 00:18:47;;;;;;;8.48;5.65;;;24.20;99.90;;;;;;7400368;19;19974;-72
2023/07/05 00:21:13;;;;;;;8.18;5.32;;;24.10;99.90;;;;;;7398881;19;19949;-71
2023/07/05 00:23:43;;;;;;;12.40;6.05;;;24.20;99.90;;;;;;7398393;19;20473;-70
2023/07/05 00:26:09;;;;;;;9.73;6.50;;;24.20;99.90;;;;;;7399419;19;20275;-72
2023/07/05 00:28:35;;;;;;;10.20;5.90;;;24.20;99.90;;;;;;7399564;19;19919;-71
2023/07/05 00:31:04;;;;;;;10.27;6.32;;;24.20;99.90;;;;;;7399239;19;19921;-71
2023/07/05 00:33:33;;;;;;;10.60;6.03;;;24.20;99.90;;;;;;7400588;19;19947;-72
2023/07/05 00:35:59;;;;;;;10.82;6.63;;;24.20;99.90;;;;;;7398911;19;19913;-71
2023/07/05 00:38:26;;;;;;;10.18;6.38;;;24.20;99.90;;;;;;7395248;19;19925;-72
2023/07/05 00:40:52;;;;;;;11.63;7.53;;;24.20;99.90;;;;;;7396086;19;19994;-71
2023/07/05 00:43:20;;;;;;;11.52;6.70;;;24.20;99.90;;;;;;7394282;19;19918;-71
2023/07/05 00:45:54;;;;;;;10.93;7.55;;;24.20;99.90;;;;;;7399014;19;19974;-72
2023/07/05 00:49:04;;;;;;;10.80;7.07;;;24.20;99.90;;;;;;7399622;19;20355;-72
2023/07/05 00:52:03;;;;;;;13.50;8.07;;;24.20;99.90;;;;;;7397731;19;20253;-71
2023/07/05 00:54:42;;;;;;;10.38;6.65;;;24.20;99.90;;;;;;7398664;19;19919;-72
2023/07/05 00:57:17;;;;;;;13.10;7.45;;;24.30;99.90;;;;;;7398113;19;20612;-72
2023/07/05 01:00:13;;;;;;;12.60;8.75;;;24.30;99.90;;;;;;7396937;19;20311;-72
2023/07/05 01:02:41;;;;;;;13.00;7.80;;;24.30;99.90;;;;;;7398520;19;19933;-71
2023/07/05 01:05:09;;;;;;;10.65;7.85;;;24.30;99.90;;;;;;7395154;19;20299;-72
2023/07/05 01:07:36;;;;;;;14.77;8.63;;;24.30;99.90;;;;;;7397696;19;20308;-71
2023/07/05 01:10:02;;;;;;;10.13;7.13;;;24.30;99.90;;;;;;7397558;19;19970;-71
2023/07/05 01:12:40;;;;;;;12.88;8.20;;;24.30;99.90;;;;;;7396903;19;19986;-71
2023/07/05 01:15:09;;;;;;;13.80;8.65;;;24.30;99.90;;;;;;7398469;19;19949;-71
2023/07/05 01:18:03;;;;;;;12.63;8.90;;;24.30;99.90;;;;;;7397569;19;20308;-72
2023/07/05 01:20:41;;;;;;;14.90;7.82;;;24.30;99.90;;;;;;7397866;19;19919;-72
2023/07/05 01:23:31;;;;;;;12.38;7.90;;;24.30;99.90;;;;;;7398928;19;19919;-72
2023/07/05 01:26:17;;;;;;;11.88;7.72;;;24.30;99.90;;;;;;7397664;19;19922;-72
2023/07/05 01:29:22;;;;;;;13.60;7.43;;;24.30;99.90;;;;;;7399554;19;19918;-72
2023/07/05 01:32:00;;;;;;;10.98;6.38;;;24.30;99.90;;;;;;7399086;19;19922;-71
2023/07/05 01:34:46;;;;;;;11.48;7.53;;;24.20;99.90;;;;;;7368609;19;19922;-72
2023/07/05 01:37:32;;;;;;;10.93;8.15;;;24.30;99.90;;;;;;7398166;19;19926;-73
2023/07/05 01:39:58;;;;;;;12.13;7.97;;;24.20;99.90;;;;;;7343742;19;19918;-72
2023/07/05 01:42:29;;;;;;;14.95;7.90;;;24.20;99.90;;;;;;7397386;19;19922;-73
2023/07/05 01:44:56;;;;;;;12.30;7.88;;;24.20;99.90;;;;;;7399564;19;19914;-72
2023/07/05 01:47:32;;;;;;;11.68;7.43;;;24.20;99.90;;;;;;7397762;19;19974;-72
2023/07/05 01:50:08;;;;;;;12.85;7.57;;;24.20;99.90;;;;;;7397109;19;19926;-72
2023/07/05 01:52:37;;;;;;;11.43;7.53;;;24.20;99.90;;;;;;7399926;19;19978;-72
2023/07/05 01:55:27;;;;;;;12.45;6.72;;;24.20;99.90;;;;;;7403647;19;19919;-72
2023/07/05 01:58:08;;;;;;;11.32;7.35;;;24.20;99.90;;;;;;7406251;19;20358;-72
2023/07/05 02:00:37;;;;;;;11.13;7.20;;;24.20;99.90;;;;;;7404142;19;20335;-73
2023/07/05 02:03:07;;;;;;;11.48;7.57;;;24.20;99.90;;;;;;7401507;19;19942;-72
2023/07/05 02:05:34;;;;;;;12.57;7.65;;;24.20;99.90;;;;;;7406874;19;19941;-72
2023/07/05 02:08:00;;;;;;;12.15;8.13;;;24.20;99.90;;;;;;7403030;19;19915;-73
2023/07/05 02:10:27;;;;;;;11.52;7.50;;;24.10;99.90;;;;;;7402187;19;19944;-72
2023/07/05 02:12:54;;;;;;;12.18;7.70;;;24.10;99.90;;;;;;7402449;19;19918;-72
2023/07/05 02:15:21;;;;;;;16.02;9.25;;;24.00;99.90;;;;;;7402189;19;19926;-72
2023/07/05 02:17:47;;;;;;;12.57;7.55;;;24.00;99.90;;;;;;7403152;19;19911;-72
2023/07/05 02:20:13;;;;;;;11.52;8.05;;;24.00;99.90;;;;;;7402517;19;19918;-72
2023/07/05 02:22:39;;;;;;;14.32;8.10;;;24.00;99.90;;;;;;7402032;19;19926;-72
2023/07/05 02:25:05;;;;;;;11.90;8.45;;;23.90;99.90;;;;;;7404205;19;19937;-72
2023/07/05 02:27:32;;;;;;;12.80;10.30;;;23.90;99.90;;;;;;7405332;19;20279;-72
2023/07/05 02:29:58;;;;;;;15.18;10.15;;;23.80;99.90;;;;;;7402583;19;19962;-72
2023/07/05 02:32:24;;;;;;;13.95;9.88;;;23.80;99.90;;;;;;7402719;19;19923;-71
2023/07/05 02:34:52;;;;;;;16.20;9.65;;;23.70;99.90;;;;;;7404243;19;19918;-72
2023/07/05 02:37:18;;;;;;;13.57;10.00;;;23.70;99.90;;;;;;7399776;19;19935;-71
2023/07/05 02:39:44;;;;;;;;;;;23.70;99.90;;;;;;7405343;19;20326;-72
2023/07/05 02:42:10;;;;;;;15.52;9.38;;;23.70;99.90;;;;;;7397180;19;19935;-72
2023/07/05 02:44:36;;;;;;;16.73;10.52;;;23.60;99.90;;;;;;7405440;19;19930;-72
2023/07/05 02:47:02;;;;;;;14.18;9.75;;;23.70;99.90;;;;;;7405151;19;19919;-72
2023/07/05 02:49:28;;;;;;;13.27;9.52;;;23.60;99.90;;;;;;7404193;19;19986;-72
2023/07/05 02:51:55;;;;;;;13.48;9.68;;;23.70;99.90;;;;;;7404302;19;20381;-72
2023/07/05 02:54:21;;;;;;;16.40;10.15;;;23.70;99.90;;;;;;7400419;19;19957;-71
2023/07/05 02:56:46;;;;;;;12.65;9.43;;;23.70;99.90;;;;;;7401870;19;20070;-72
2023/07/05 02:59:12;;;;;;;16.58;10.52;;;23.70;99.90;;;;;;7399536;19;19958;-72
2023/07/05 03:01:38;;;;;;;15.20;10.50;;;23.50;99.90;;;;;;7403777;19;19926;-72
2023/07/05 03:04:04;;;;;;;19.35;10.68;;;23.50;99.90;;;;;;7401344;19;20256;-72
2023/07/05 03:06:30;;;;;;;14.23;9.77;;;23.50;99.90;;;;;;7402609;19;19935;-72
2023/07/05 03:08:55;;;;;;;16.23;11.63;;;23.50;99.90;;;;;;7404137;19;20252;-72
2023/07/05 03:11:21;;;;;;;14.70;10.35;;;23.50;99.90;;;;;;7402032;19;20348;-71
2023/07/05 03:13:47;;;;;;;15.35;10.27;;;23.50;99.90;;;;;;7404422;19;19918;-71
2023/07/05 03:16:13;;;;;;;15.50;10.38;;;23.50;99.90;;;;;;7401905;19;19919;-72
2023/07/05 03:18:38;;;;;;;16.42;11.82;;;23.50;99.90;;;;;;7403638;19;19943;-71
2023/07/05 03:21:04;;;;;;;16.35;10.95;;;23.60;99.90;;;;;;7402715;19;19975;-71
2023/07/05 03:23:30;;;;;;;17.48;11.27;;;23.50;99.90;;;;;;7404604;19;19926;-71
2023/07/05 03:26:04;;;;;;;16.65;11.80;;;23.50;99.90;;;;;;7403368;19;19922;-71
2023/07/05 03:28:32;;;;;;;18.08;12.05;;;23.50;99.90;;;;;;7401515;19;19922;-72
2023/07/05 03:31:04;;;;;;;18.15;10.75;;;23.50;99.90;;;;;;7402438;19;19918;-71
2023/07/05 03:33:30;;;;;;;16.67;11.68;;;23.50;99.90;;;;;;7399963;19;19927;-71
2023/07/05 03:35:58;;;;;;;19.65;12.48;;;23.50;99.90;;;;;;7401502;19;19911;-72
2023/07/05 03:38:26;;;;;;;18.60;13.35;;;23.50;99.90;;;;;;7400962;19;19915;-71
2023/07/05 03:40:59;;;;;;;17.20;13.57;;;23.50;99.90;;;;;;7403395;19;20236;-71
2023/07/05 03:43:25;;;;;;;18.90;12.88;;;23.40;99.90;;;;;;7401192;19;20394;-71
2023/07/05 03:45:54;;;;;;;17.88;11.90;;;23.40;99.90;;;;;;7401994;19;19928;-70
2023/07/05 03:48:21;;;;;;;19.98;10.82;;;23.40;99.90;;;;;;7400853;19;20486;-71
2023/07/05 03:50:47;;;;;;;;;;;23.40;99.90;;;;;;7402535;19;19910;-71
2023/07/05 03:53:13;;;;;;;14.68;9.85;;;23.30;99.90;;;;;;7397797;19;19918;-70
2023/07/05 03:55:39;;;;;;;14.80;10.05;;;23.30;99.90;;;;;;7400862;19;19919;-72
2023/07/05 03:58:04;;;;;;;15.23;9.18;;;23.30;99.90;;;;;;7398689;19;19927;-70
2023/07/05 04:00:30;;;;;;;15.18;9.48;;;23.30;99.90;;;;;;7401237;19;19936;-71
2023/07/05 04:02:56;;;;;;;14.45;9.77;;;23.30;99.90;;;;;;7400429;19;20439;-71
2023/07/05 04:05:22;;;;;;;14.30;9.02;;;23.20;99.90;;;;;;7395622;19;19970;-71
2023/07/05 04:07:48;;;;;;;12.77;7.93;;;23.20;99.90;;;;;;7402031;19;20017;-71
2023/07/05 04:10:14;;;;;;;14.10;8.82;;;23.20;99.90;;;;;;7399504;19;20750;-71
2023/07/05 04:12:41;;;;;;;14.63;8.00;;;23.10;99.90;;;;;;7401469;19;19918;-71
2023/07/05 04:15:07;;;;;;;12.23;7.78;;;23.10;99.90;;;;;;7399700;19;19918;-71
2023/07/05 04:17:33;;;;;;;12.00;8.00;;;23.10;99.90;;;;;;7400865;19;19921;-70
2023/07/05 04:19:59;;;;;;;13.05;8.55;;;23.10;99.90;;;;;;7400059;19;19974;-71
2023/07/05 04:22:26;;;;;;;13.02;8.82;;;23.10;99.90;;;;;;7401433;19;19914;-72
2023/07/05 04:24:51;;;;;;;13.10;7.90;;;23.00;99.90;;;;;;7402200;19;19921;-71
2023/07/05 04:27:17;;;;;;;13.55;8.05;;;23.00;99.90;;;;;;7399826;19;19926;-70
2023/07/05 04:29:43;;;;;;;14.02;8.80;;;23.00;99.90;;;;;;7398869;19;19922;-71
2023/07/05 04:32:09;;;;;;;14.23;10.07;;;23.00;99.90;;;;;;7400095;19;20247;-71
2023/07/05 04:34:34;;;;;;;11.60;8.55;;;23.10;99.90;;;;;;7398635;19;19915;-71
2023/07/05 04:37:00;;;;;;;13.70;8.73;;;23.10;99.90;;;;;;7400238;19;19918;-72
2023/07/05 04:39:26;;;;;;;12.70;8.65;;;23.10;99.90;;;;;;7395624;19;19915;-72
2023/07/05 04:41:51;;;;;;;12.80;8.30;;;23.20;99.90;;;;;;7398790;19;19922;-71
2023/07/05 04:44:17;;;;;;;14.40;8.85;;;23.20;99.90;;;;;;7398926;19;19918;-71
2023/07/05 04:46:43;;;;;;;13.70;8.00;;;23.20;99.90;;;;;;7400275;19;19968;-71
2023/07/05 04:49:09;;;;;;;11.88;8.15;;;23.40;99.90;;;;;;7399660;19;19914;-72
2023/07/05 04:51:34;;;;;;;12.15;9.27;;;23.40;99.90;;;;;;7398262;19;20292;-71
2023/07/05 04:54:00;;;;;;;22.88;10.18;;;23.50;99.90;;;;;;7400999;19;20247;-74
2023/07/05 04:56:26;;;;;;;14.43;9.55;;;23.50;99.90;;;;;;7399375;19;20575;-71
2023/07/05 04:58:52;;;;;;;14.32;10.32;;;23.60;99.90;;;;;;7398015;19;20248;-72
2023/07/05 05:01:20;;;;;;;13.98;9.65;;;23.60;99.90;;;;;;7365463;19;19939;-71
2023/07/05 05:03:45;;;;;;;13.18;8.93;;;23.60;99.90;;;;;;7397281;19;19919;-71
2023/07/05 05:06:11;;;;;;;14.82;8.60;;;23.60;99.90;;;;;;7398909;19;20331;-71
2023/07/05 05:08:37;;;;;;;13.55;9.65;;;23.70;99.90;;;;;;7398674;19;20327;-71
2023/07/05 05:11:05;;;;;;;14.23;8.85;;;23.70;99.90;;;;;;7399119;19;19914;-71
2023/07/05 05:13:34;;;;;;;13.68;9.73;;;23.80;99.90;;;;;;7401252;19;19915;-72
2023/07/05 05:16:00;;;;;;;14.75;9.88;;;23.80;99.90;;;;;;7397190;19;20022;-72
2023/07/05 05:18:28;;;;;;;;;;;23.90;99.90;;;;;;7398281;19;19939;-73
2023/07/05 05:20:54;;;;;;;13.63;8.57;;;23.90;99.90;;;;;;7397998;19;19935;-73
2023/07/05 05:23:19;;;;;;;13.02;9.00;;;23.90;99.90;;;;;;7397611;19;20013;-72
2023/07/05 05:25:46;;;;;;;16.65;10.07;;;24.00;99.90;;;;;;7399283;19;19934;-73
2023/07/05 05:28:13;;;;;;;14.63;10.25;;;24.00;99.90;;;;;;7398147;19;19915;-73
2023/07/05 05:30:40;;;;;;;18.55;12.02;;;24.00;99.90;;;;;;7396751;19;20232;-71
2023/07/05 05:33:05;;;;;;;15.15;9.32;;;24.00;99.90;;;;;;7399182;19;20725;-72
2023/07/05 05:35:32;;;;;;;16.48;10.02;;;24.00;99.90;;;;;;7400632;19;20013;-72
2023/07/05 05:37:58;;;;;;;18.05;9.98;;;24.00;99.90;;;;;;7398346;19;19922;-72
2023/07/05 05:40:24;;;;;;;16.38;11.27;;;24.00;99.90;;;;;;7392338;19;19990;-72
2023/07/05 05:42:50;;;;;;;14.35;10.13;;;24.00;99.90;;;;;;7374444;19;19977;-73
2023/07/05 05:45:16;;;;;;;15.80;9.77;;;24.00;99.90;;;;;;7397419;19;19915;-73
2023/07/05 05:47:42;;;;;;;19.00;10.13;;;24.00;99.90;;;;;;7397157;19;19925;-72
2023/07/05 05:50:08;;;;;;;15.02;10.20;;;24.10;99.90;;;;;;7399170;19;19939;-73
2023/07/05 05:52:35;;;;;;;16.88;9.65;;;24.10;99.90;;;;;;7397564;19;19926;-72
2023/07/05 05:55:01;;;;;;;13.05;9.65;;;24.10;99.90;;;;;;7398586;19;20788;-72
2023/07/05 05:57:27;;;;;;;;;;;24.10;99.90;;;;;;7400130;19;19953;-73
2023/07/05 05:59:52;;;;;;;14.90;9.13;;;24.20;99.90;;;;;;7397411;19;20327;-73
2023/07/05 06:02:19;;;;;;;14.55;9.75;;;24.20;99.90;;;;;;7397156;19;20002;-72
2023/07/05 06:04:44;;;;;;;18.77;10.27;;;24.20;99.90;;;;;;7398607;19;20306;-72
2023/07/05 06:07:10;;;;;;;13.82;8.05;;;24.30;99.90;;;;;;7397172;19;19927;-72
2023/07/05 06:09:46;;;;;;;11.40;7.18;;;24.40;99.90;;;;;;7397064;19;19982;-72
2023/07/05 06:12:13;;;;;;;16.70;7.88;;;24.40;99.90;;;;;;7395285;19;19918;-72
2023/07/05 06:14:39;;;;;;;12.98;7.90;;;24.40;99.90;;;;;;7395679;19;19907;-71
2023/07/05 06:17:06;;;;;;;11.55;7.55;;;24.50;99.90;;;;;;7397797;19;19915;-72
2023/07/05 06:19:31;;;;;;;9.82;6.82;;;24.50;99.90;;;;;;7398335;19;19911;-71
2023/07/05 06:22:00;;;;;;;12.00;6.93;;;24.50;99.90;;;;;;7346405;19;19911;-72
2023/07/05 06:24:25;;;;;;;9.63;6.80;;;24.50;99.90;;;;;;7397103;19;19910;-71
2023/07/05 06:26:52;;;;;;;11.70;7.40;;;24.50;99.90;;;;;;7394642;19;20302;-72
2023/07/05 06:29:18;;;;;;;;;;;24.50;99.90;;;;;;7395669;19;19926;-71
2023/07/05 06:31:44;;;;;;;11.60;6.90;;;24.60;99.90;;;;;;7395400;19;20340;-72
2023/07/05 06:34:10;;;;;;;11.95;5.90;;;24.70;99.90;;;;;;7391650;19;19914;-72
2023/07/05 06:36:36;;;;;;;13.07;6.07;;;24.70;99.90;;;;;;7395561;19;19923;-72
2023/07/05 06:39:02;;;;;;;10.98;6.22;;;24.80;99.90;;;;;;7401043;19;20652;-72
2023/07/05 06:41:28;;;;;;;;;;;25.00;99.90;;;;;;7402995;19;19986;-72
2023/07/05 06:43:54;;;;;;;10.35;5.82;;;24.90;99.90;;;;;;7401148;19;19956;-71
2023/07/05 06:46:19;;;;;;;9.85;5.88;;;24.90;99.90;;;;;;7345241;19;20345;-72
2023/07/05 06:48:45;;;;;;;12.35;6.78;;;24.80;99.90;;;;;;7400972;19;20621;-72
2023/07/05 06:51:11;;;;;;;10.80;5.93;;;24.70;99.90;;;;;;7402672;19;19924;-72
2023/07/05 06:53:38;;;;;;;11.25;6.18;;;24.80;99.90;;;;;;7405371;19;20399;-72
2023/07/05 06:56:04;;;;;;;10.73;5.85;;;24.80;99.90;;;;;;7349225;19;20347;-72
2023/07/05 06:58:30;;;;;;;9.95;5.85;;;24.70;99.90;;;;;;7403589;19;19929;-71
2023/07/05 07:00:56;;;;;;;10.95;6.82;;;24.80;99.90;;;;;;7403923;19;20339;-72
2023/07/05 07:03:22;;;;;;;11.73;6.15;;;24.90;99.90;;;;;;7400806;19;19934;-72
2023/07/05 07:05:52;;;;;;;11.27;6.18;;;25.00;99.90;;;;;;7404056;19;19929;-71
2023/07/05 07:08:18;;;;;;;12.63;6.65;;;25.20;99.90;;;;;;7394846;19;19915;-72
2023/07/05 07:10:46;;;;;;;;;;;25.30;99.90;;;;;;7362927;19;19914;-72
2023/07/05 07:13:14;;;;;;;11.00;6.78;;;25.50;99.90;;;;;;7394676;19;19910;-73
2023/07/05 07:15:41;;;;;;;10.23;6.70;;;25.80;99.90;;;;;;7400901;19;19919;-72
2023/07/05 07:18:07;;;;;;;10.93;7.32;;;26.10;99.90;;;;;;7402498;19;20304;-73
2023/07/05 07:20:33;;;;;;;;;;;26.10;99.90;;;;;;7407385;19;19914;-72
2023/07/05 07:22:59;;;;;;;10.70;8.15;;;26.20;99.90;;;;;;7398388;19;20293;-72
2023/07/05 07:25:25;;;;;;;13.02;6.68;;;26.20;99.90;;;;;;7401149;19;19918;-73
2023/07/05 07:27:51;;;;;;;;;;;26.30;99.90;;;;;;7403552;19;20455;-72
2023/07/05 07:30:17;;;;;;;8.32;5.72;;;26.40;99.60;;;;;;7378352;19;19946;-71
2023/07/05 07:32:47;;;;;;;23.27;13.40;;;26.40;99.30;;;;;;7380318;19;20348;-73
2023/07/05 07:35:14;;;;;;;17.52;12.10;;;26.40;98.70;;;;;;7389728;19;19914;-73
2023/07/05 07:37:40;;;;;;;9.95;5.70;;;26.40;98.30;;;;;;7394667;19;20005;-73
2023/07/05 07:40:08;;;;;;;10.02;5.57;;;26.30;98.30;;;;;;7397207;19;19930;-73
2023/07/05 07:42:34;;;;;;;8.63;5.15;;;26.60;97.90;;;;;;7399645;19;19918;-73
2023/07/05 07:45:00;;;;;;;8.57;4.78;;;26.60;96.50;;;;;;7400201;19;20366;-72
2023/07/05 07:47:27;;;;;;;8.63;4.82;;;26.50;96.50;;;;;;7394150;19;19925;-74
2023/07/05 07:49:53;;;;;;;9.55;4.53;;;26.50;96.50;;;;;;7395050;19;19914;-72
2023/07/05 07:52:19;;;;;;;8.45;4.97;;;26.60;96.50;;;;;;7395031;19;19914;-73
2023/07/05 07:54:45;;;;;;;8.82;5.30;;;26.60;96.20;;;;;;7396420;19;20365;-72
2023/07/05 07:57:11;;;;;;;;;;;26.60;96.80;;;;;;7397691;19;19949;-73
2023/07/05 07:59:41;;;;;;;9.95;4.50;;;26.70;97.10;;;;;;7394839;19;19911;-73
2023/07/05 08:02:16;;;;;;;10.90;6.05;;;26.80;96.90;;;;;;7390945;19;20263;-73
2023/07/05 08:04:44;;;;;;;7.75;5.15;;;26.70;96.60;;;;;;7393324;19;19922;-73
2023/07/05 08:07:10;;;;;;;7.60;5.10;;;26.80;97.30;;;;;;7396039;19;19922;-73
2023/07/05 08:09:36;;;;;;;8.20;5.22;;;26.90;97.10;;;;;;7393933;19;19914;-73
2023/07/05 08:12:02;;;;;;;8.98;5.20;;;27.20;96.50;;;;;;7402196;19;20511;-72
2023/07/05 08:14:28;;;;;;;;;;;27.30;95.60;;;;;;7400805;19;19974;-72
2023/07/05 08:16:54;;;;;;;8.25;4.70;;;27.20;94.80;;;;;;7397168;19;19922;-73
2023/07/05 08:19:20;;;;;;;8.50;4.88;;;27.10;95.40;;;;;;7392591;19;19918;-72
2023/07/05 08:21:47;;;;;;;10.30;5.13;;;26.90;96.20;;;;;;7390266;19;19914;-72
2023/07/05 08:24:14;;;;;;;9.32;4.90;;;26.80;96.60;;;;;;7399583;19;19914;-73
2023/07/05 08:26:41;;;;;;;9.60;5.18;;;26.80;96.80;;;;;;7402084;19;20470;-73
2023/07/05 08:29:08;;;;;;;8.40;4.50;;;26.70;97.00;;;;;;7394259;19;19944;-72
2023/07/05 08:31:34;;;;;;;9.63;5.20;;;26.50;97.50;;;;;;7383968;19;19985;-73
2023/07/05 08:34:01;;;;;;;10.25;5.63;;;26.30;98.70;;;;;;7386676;19;19910;-73
2023/07/05 08:36:35;;;;;;;12.00;5.75;;;25.80;99.00;;;;;;7392017;19;19938;-72
2023/07/05 08:39:03;;;;;;;10.80;5.97;;;25.50;99.10;;;;;;7391762;19;19918;-72
2023/07/05 08:41:41;;;;;;;9.95;6.57;;;25.00;99.90;;;;;;7386606;19;19926;-73
2023/07/05 08:44:35;;;;;;;11.75;6.15;;;24.80;99.90;;;;;;7389047;19;20340;-73
2023/07/05 08:47:02;;;;;;;11.85;6.50;;;24.70;99.90;;;;;;7392675;19;19922;-72
2023/07/05 08:49:36;;;;;;;12.80;6.70;;;24.60;99.90;;;;;;7383921;19;19930;-73
2023/07/05 08:52:03;;;;;;;15.77;6.80;;;24.50;99.90;;;;;;7397955;19;19959;-72
2023/07/05 08:54:34;;;;;;;15.65;7.40;;;24.60;99.90;;;;;;7397575;19;19915;-74
2023/07/05 08:57:07;;;;;;;15.57;6.72;;;24.50;99.90;;;;;;7399965;19;19974;-73
2023/07/05 08:59:51;;;;;;;12.48;8.25;;;24.30;99.90;;;;;;7400134;19;20249;-73
2023/07/05 09:02:20;;;;;;;18.80;9.40;;;24.10;99.90;;;;;;7399425;19;19914;-74
2023/07/05 09:04:47;;;;;;;15.40;8.45;;;23.90;99.90;;;;;;7398739;19;20248;-74
2023/07/05 09:07:44;;;;;;;17.58;9.18;;;23.70;99.90;;;;;;7397725;19;20358;-73
2023/07/05 09:10:30;;;;;;;11.48;6.95;;;23.60;99.90;;;;;;7399136;19;19911;-73
2023/07/05 09:13:14;;;;;;;12.65;6.63;;;23.40;99.90;;;;;;7394772;19;19925;-74
2023/07/05 09:16:21;;;;;;;15.05;6.43;;;23.30;99.90;;;;;;7397997;19;20377;-74
2023/07/05 09:19:19;;;;;;;12.20;6.38;;;23.00;99.90;;;;;;7395109;19;19939;-76
2023/07/05 09:21:58;;;;;;;13.15;7.28;;;22.90;99.90;;;;;;7393916;19;19925;-74
2023/07/05 09:24:31;;;;;;;12.75;6.95;;;22.90;99.90;;;;;;7397718;19;19925;-74
2023/07/05 09:27:04;;;;;;;15.75;7.72;;;22.80;99.90;;;;;;7399677;19;20348;-73
2023/07/05 09:29:38;;;;;;;12.57;6.82;;;22.70;99.90;;;;;;7396690;19;19918;-74
2023/07/05 09:32:16;;;;;;;13.25;6.78;;;22.60;99.90;;;;;;7397327;19;19910;-74
2023/07/05 09:34:56;;;;;;;15.50;7.50;;;22.50;99.90;;;;;;7397122;19;20459;-73
2023/07/05 09:37:35;;;;;;;16.80;7.25;;;22.40;99.90;;;;;;7359831;19;20754;-73
2023/07/05 09:40:35;;;;;;;14.70;7.53;;;22.40;99.90;;;;;;7399998;19;19919;-74
2023/07/05 09:43:14;;;;;;;13.82;7.53;;;22.40;99.90;;;;;;7390527;19;19907;-74
2023/07/05 09:45:39;;;;;;;20.00;8.63;;;22.30;99.90;;;;;;7395071;19;19922;-74
2023/07/05 09:48:10;;;;;;;14.23;7.72;;;22.00;99.90;;;;;;7389182;19;19932;-75
2023/07/05 09:50:46;;;;;;;18.80;7.93;;;21.90;99.90;;;;;;7389824;19;20373;-75
2023/07/05 09:53:47;;;;;;;13.95;8.18;;;21.80;99.90;;;;;;7390862;19;19918;-73
2023/07/05 09:56:16;;;;;;;16.00;8.13;;;21.70;99.90;;;;;;7392311;19;19927;-73
2023/07/05 09:58:44;;;;;;;18.65;7.68;;;21.80;99.90;;;;;;7398289;19;20677;-73
2023/07/05 10:01:23;;;;;;;14.70;7.20;;;21.80;99.90;;;;;;7392501;19;19923;-72
2023/07/05 10:03:57;;;;;;;13.40;7.50;;;21.80;99.90;;;;;;7392621;19;20791;-73
2023/07/05 10:06:37;;;;;;;13.77;7.22;;;21.80;99.90;;;;;;7370589;19;19930;-74
2023/07/05 10:09:13;;;;;;;14.55;7.88;;;21.70;99.90;;;;;;7390130;19;20280;-72
2023/07/05 10:11:45;;;;;;;14.32;6.97;;;21.70;99.90;;;;;;7390073;19;19914;-72
2023/07/05 10:14:17;;;;;;;15.60;6.65;;;21.70;99.90;;;;;;7400732;19;20004;-72
2023/07/05 10:16:49;;;;;;;13.40;7.43;;;21.80;99.90;;;;;;7398339;19;19961;-73
2023/07/05 10:19:36;;;;;;;14.55;7.13;;;21.80;99.90;;;;;;7403775;19;19945;-73
2023/07/05 10:22:12;;;;;;;15.13;8.48;;;21.80;99.90;;;;;;7341291;19;20294;-72
2023/07/05 10:24:47;;;;;;;15.68;7.03;;;22.00;99.90;;;;;;7397883;19;19922;-73
2023/07/05 10:27:41;;;;;;;17.88;8.07;;;22.10;99.90;;;;;;7397074;19;20227;-73
2023/07/05 10:30:13;;;;;;;12.52;7.00;;;22.20;99.90;;;;;;7401248;19;19922;-73
2023/07/05 10:32:40;;;;;;;13.45;6.68;;;22.10;99.90;;;;;;7399594;19;19918;-73
2023/07/05 10:35:28;;;;;;;15.70;6.43;;;22.20;99.90;;;;;;7397475;19;19930;-73
2023/07/05 10:37:55;;;;;;;16.00;6.72;;;22.40;99.90;;;;;;7402897;19;19922;-73
2023/07/05 10:40:22;;;;;;;16.08;6.53;;;22.50;99.90;;;;;;7389122;19;19914;-73
2023/07/05 10:42:54;;;;;;;17.25;6.43;;;22.30;99.90;;;;;;7398567;19;21757;-73
2023/07/05 10:45:22;;;;;;;11.57;5.72;;;22.30;99.90;;;;;;7389938;19;19927;-72
2023/07/05 10:47:52;;;;;;;18.88;6.10;;;21.90;99.90;;;;;;7398545;19;20368;-72
2023/07/05 10:50:27;;;;;;;14.05;6.75;;;22.10;99.90;;;;;;7395187;19;20304;-73
2023/07/05 10:53:10;;;;;;;13.70;6.60;;;22.10;99.90;;;;;;7399192;19;19930;-74
2023/07/05 10:56:16;;;;;;;13.43;5.85;;;22.00;99.90;;;;;;7400923;19;19978;-73
2023/07/05 10:58:53;;;;;;;14.32;6.35;;;22.20;99.90;;;;;;7396807;19;19914;-72
2023/07/05 11:01:26;;;;;;;15.10;5.85;;;22.60;99.90;;;;;;7397125;19;19924;-73
2023/07/05 11:04:05;;;;;;;13.80;5.95;;;22.70;99.90;;;;;;7385764;19;19925;-72
2023/07/05 11:06:35;;;;;;;10.63;5.97;;;22.80;99.90;;;;;;7397059;19;19925;-72
2023/07/05 11:09:02;;;;;;;15.77;6.93;;;23.00;99.90;;;;;;7404911;19;19932;-72
2023/07/05 11:11:32;;;;;;;12.52;6.15;;;23.20;99.90;;;;;;7399753;19;19947;-72
2023/07/05 11:14:07;;;;;;;13.48;5.75;;;23.50;99.90;;;;;;7396748;19;19926;-73
2023/07/05 11:16:34;;;;;;;13.18;5.32;;;23.80;99.90;;;;;;7395321;19;19935;-73
2023/07/05 11:19:06;;;;;;;14.25;6.38;;;23.70;99.90;;;;;;7400645;19;19923;-73
2023/07/05 11:21:44;;;;;;;13.30;5.95;;;24.00;99.90;;;;;;7399249;19;19926;-74
2023/07/05 11:24:39;;;;;;;13.65;6.07;;;24.10;99.90;;;;;;7399602;19;19919;-73
2023/07/05 11:27:24;;;;;;;15.02;5.80;;;24.10;99.90;;;;;;7402584;19;19915;-74
2023/07/05 11:29:54;;;;;;;12.50;5.88;;;24.10;99.90;;;;;;7398690;19;19914;-74
2023/07/05 11:32:28;;;;;;;12.90;5.13;;;24.30;99.90;;;;;;7381260;19;19945;-74
2023/07/05 11:34:55;;;;;;;13.68;5.60;;;24.60;99.90;;;;;;7399011;19;19929;-74
2023/07/05 11:37:22;;;;;;;13.32;6.18;;;24.70;99.90;;;;;;7398359;19;19922;-73
2023/07/05 11:39:52;;;;;;;12.60;5.55;;;24.70;99.90;;;;;;7400914;19;20029;-73
2023/07/05 11:42:22;;;;;;;13.10;6.68;;;24.90;99.90;;;;;;7397800;19;20250;-73
2023/07/05 11:45:03;;;;;;;13.00;5.75;;;24.70;99.90;;;;;;7396836;19;19922;-72
2023/07/05 11:47:32;;;;;;;16.52;7.03;;;24.90;99.90;;;;;;7392935;19;20533;-72
2023/07/05 11:50:06;;;;;;;14.73;7.80;;;25.20;99.90;;;;;;7400724;19;20281;-74
2023/07/05 11:52:52;;;;;;;14.30;7.18;;;25.60;99.90;;;;;;7389937;19;20259;-72
2023/07/05 11:55:20;;;;;;;13.50;6.40;;;25.40;98.00;;;;;;7395875;19;20383;-73
2023/07/05 11:58:05;;;;;;;14.93;6.75;;;25.40;99.00;;;;;;7388982;19;19918;-73
2023/07/05 12:00:58;;;;;;;14.25;5.88;;;25.70;97.70;;;;;;7399893;19;19921;-73
2023/07/05 12:03:42;;;;;;;15.20;6.82;;;26.10;96.60;;;;;;7391949;19;20500;-72
2023/07/05 12:06:10;;;;;;;13.15;6.72;;;26.00;95.70;;;;;;7388913;19;20259;-72
2023/07/05 12:08:53;;;;;;;15.63;5.85;;;26.20;95.70;;;;;;7396051;19;19910;-72
2023/07/05 12:11:41;;;;;;;12.05;5.35;;;26.10;94.60;;;;;;7396745;19;20010;-73
2023/07/05 12:14:17;;;;;;;10.30;5.85;;;26.10;95.20;;;;;;7395648;19;19957;-72
2023/07/05 12:16:44;;;;;;;14.85;6.43;;;26.20;95.40;;;;;;7396373;19;21135;-72
2023/07/05 12:19:18;;;;;;;15.60;5.68;;;26.20;94.10;;;;;;7398196;19;19923;-72
2023/07/05 12:21:52;;;;;;;13.23;6.85;;;26.30;94.50;;;;;;7397259;19;20335;-71
2023/07/05 12:24:17;;;;;;;11.88;5.68;;;26.20;94.30;;;;;;7393675;19;19931;-72
2023/07/05 12:26:43;;;;;;;13.38;5.90;;;26.10;94.10;;;;;;7396038;19;20351;-73
2023/07/05 12:29:25;;;;;;;11.40;6.13;;;26.10;94.00;;;;;;7380140;19;19989;-72
2023/07/05 12:32:05;;;;;;;14.38;6.55;;;25.90;94.80;;;;;;7398832;19;20337;-72
2023/07/05 12:34:31;;;;;;;11.68;5.68;;;25.80;94.20;;;;;;7394998;19;19933;-71
2023/07/05 12:36:58;;;;;;;13.30;6.78;;;26.00;94.70;;;;;;7396892;19;20315;-73
2023/07/05 12:39:25;;;;;;;14.00;6.57;;;26.00;94.30;;;;;;7397739;19;20571;-71
2023/07/05 12:42:05;;;;;;;11.82;6.40;;;25.70;94.80;;;;;;7393105;19;19914;-72
2023/07/05 12:44:33;;;;;;;11.20;5.45;;;25.60;95.20;;;;;;7393516;19;19914;-73
2023/07/05 12:47:16;;;;;;;13.23;5.60;;;25.60;95.40;;;;;;7393206;19;19922;-72
2023/07/05 12:49:42;;;;;;;14.20;5.85;;;25.30;96.10;;;;;;7395087;19;19985;-73
2023/07/05 12:52:19;;;;;;;12.27;5.40;;;25.40;95.90;;;;;;7363464;19;20005;-73
2023/07/05 12:54:45;;;;;;;13.25;5.55;;;25.40;96.50;;;;;;7394675;19;19914;-74
2023/07/05 12:57:25;;;;;;;14.85;6.28;;;25.50;95.80;;;;;;7391414;19;20024;-72
2023/07/05 12:59:51;;;;;;;14.15;5.85;;;25.60;96.00;;;;;;7397996;19;19948;-75